Springlake, TX (79082)

07:15 PM CDT am 22. September 2014 (GMT -0500)
WT_Meso Olton 6S | Change Station
CLOSE
Current Station
Persönliche Wetterstationen
Location: Olton, TX
Höhe: 3565 ft
Wetterstationen in der Umgebung

Höhe 3565 ft 34.09 °N, 102.12 °W | Updated 50 minutes ago

Teils Wolkig
Teils Wolkig
73 °F
gefühlte 75 °F
N
10
Wind Wechselnd Wind aus Südost
Gusts 14.0 mph

Heute
Max. -- | schwach -- °F
--% Regenrisiko
Gestern
Max. -- | schwach -- °F
Precip. -- inch
7:37 AM 7:45 PM
Letztes Viertel, 1% visible
Druck 30.21 inch
Sichtweite 10.0 Meilen
Wolken Heiter
Hitzeindex 75 °F
Taupunkt 61 °F
Feuchtigkeit 68%
Regen -999.00 inch
Schneehöhe Nicht verfügbar..
UV 0 von 12
Pollen 5.40 von 12
Luftqualität Nicht verfügbar..
Flu Activity Nicht verfügbar..
METAR KPVW 222355Z AUTO 16005KT 10SM CLR 23/18 A3021 RMK AO2 T02250175 10240 20211

More Conditions Fewer Conditions

Druck 30.21 inch
Sichtweite 10.0 Meilen
Wolken Heiter
Hitzeindex 75 °F
Taupunkt 61 °F
Feuchtigkeit 68%
Regen -999.00 inch
Schneehöhe Nicht verfügbar..
UV 0 von 12
Pollen 5.40 von 12
Luftqualität Nicht verfügbar..
Flu Activity Nicht verfügbar..
METAR KPVW 222355Z AUTO 16005KT 10SM CLR 23/18 A3021 RMK AO2 T02250175 10240 20211

More Conditions Fewer Conditions

10-Day Weather Forecast

Almanac

Astronomie

Sep. 22, 2014 Aufgang Untergang
Genaue Zeit 07:37 CDT 19:45 CDT
Bürgerliche Dämmerung 07:12 CDT 20:10 CDT
Nautische Dämmerung 06:43 CDT 20:40 CDT
Astronomische Dämmerung 06:13 CDT 21:09 CDT
Mond 06:10 CDT (9/22) 18:53 CDT (9/22)
Länge des sichtbaren Lichts 12h 58m
Tageslänge
12h 08m
Tomorrow will be 2m 6s shorter.
Letztes Viertel, 1% of the Moon is Illuminated
Heute
Letztes Viertel
Sept 24
Neu
Okt 1
Erstes Viertel
Okt 8
Vollmond
Okt 15
Letztes Viertel

Heutige Rekorde

State Highs State Lows

Community

WunderPhotos

Upload Photos

1,755,562 Fotos hochgeladen!

Nearby

Schneehöhe

Station Depth Höhe
Kein Neuschnee gemeldet.

Erdbebenaktivität

Stadt Distance Mag. Time & Date
No recent earthquake activity has been reported nearby.
Minimum magnitude displayed is 2.5.

küstennahe Wassertemperaturen

Ort Temperatur
Kein Stationsbericht

Wetterstationen in der Umgebung